<?xml version="1.0" encoding="UTF-8" standalone="no" ?>
<gpx xmlns="http://www.topografix.com/GPX/1/1" xmlns:xsi="http://www.w3.org/2001/XMLSchema-instance" xsi:schemaLocation="http://www.topografix.com/GPX/1/1 http://www.topografix.com/GPX/1/1/gpx.xsd" version="1.1" creator="VisuGPX - https://www.visugpx.com">
  <metadata>
    <name>Tour vtt Vercors Nord</name>
  </metadata>
  <trk>
    <name><![CDATA[Corrençon-Chapelle Vercors]]></name>
    <trkseg>
      <trkpt lat="45.02916" lon="5.52748">
        <ele>1115</ele>
        <time>2011-06-03T06:34:20.000Z</time>
      </trkpt>
      <trkpt lat="45.02863" lon="5.52696">
        <ele>1118</ele>
        <time>2011-06-03T06:34:49.000Z</time>
      </trkpt>
      <trkpt lat="45.02808" lon="5.52648">
        <ele>1121</ele>
        <time>2011-06-03T06:35:18.000Z</time>
      </trkpt>
      <trkpt lat="45.02798" lon="5.52543">
        <ele>1123</ele>
        <time>2011-06-03T06:35:52.000Z</time>
      </trkpt>
      <trkpt lat="45.02771" lon="5.52413">
        <ele>1124</ele>
        <time>2011-06-03T06:36:18.000Z</time>
      </trkpt>
      <trkpt lat="45.02704" lon="5.52234">
        <ele>1125</ele>
        <time>2011-06-03T06:36:53.000Z</time>
      </trkpt>
      <trkpt lat="45.02656" lon="5.52188">
        <ele>1128</ele>
        <time>2011-06-03T06:37:15.000Z</time>
      </trkpt>
      <trkpt lat="45.02592" lon="5.5213">
        <ele>1130</ele>
        <time>2011-06-03T06:37:44.000Z</time>
      </trkpt>
      <trkpt lat="45.02584" lon="5.52089">
        <ele>1132</ele>
        <time>2011-06-03T06:37:59.000Z</time>
      </trkpt>
      <trkpt lat="45.02608" lon="5.52064">
        <ele>1128</ele>
        <time>2011-06-03T06:38:23.000Z</time>
      </trkpt>
      <trkpt lat="45.02606" lon="5.52039">
        <ele>1127</ele>
        <time>2011-06-03T06:38:46.000Z</time>
      </trkpt>
      <trkpt lat="45.026" lon="5.52026">
        <ele>1129</ele>
        <time>2011-06-03T06:39:15.000Z</time>
      </trkpt>
      <trkpt lat="45.02583" lon="5.52004">
        <ele>1133</ele>
        <time>2011-06-03T06:39:49.000Z</time>
      </trkpt>
      <trkpt lat="45.02566" lon="5.51991">
        <ele>1135</ele>
        <time>2011-06-03T06:40:16.000Z</time>
      </trkpt>
      <trkpt lat="45.02545" lon="5.51972">
        <ele>1139</ele>
        <time>2011-06-03T06:40:45.000Z</time>
      </trkpt>
      <trkpt lat="45.02513" lon="5.51927">
        <ele>1140</ele>
        <time>2011-06-03T06:41:14.000Z</time>
      </trkpt>
      <trkpt lat="45.02485" lon="5.51871">
        <ele>1146</ele>
        <time>2011-06-03T06:41:45.000Z</time>
      </trkpt>
      <trkpt lat="45.02443" lon="5.518">
        <ele>1146</ele>
        <time>2011-06-03T06:42:06.000Z</time>
      </trkpt>
      <trkpt lat="45.02391" lon="5.51757">
        <ele>1148</ele>
        <time>2011-06-03T06:42:26.000Z</time>
      </trkpt>
      <trkpt lat="45.02327" lon="5.51719">
        <ele>1151</ele>
        <time>2011-06-03T06:42:57.000Z</time>
      </trkpt>
      <trkpt lat="45.02345" lon="5.51672">
        <ele>1160</ele>
        <time>2011-06-03T06:43:26.000Z</time>
      </trkpt>
      <trkpt lat="45.02366" lon="5.51626">
        <ele>1163</ele>
        <time>2011-06-03T06:43:51.000Z</time>
      </trkpt>
      <trkpt lat="45.0241" lon="5.51594">
        <ele>1170</ele>
        <time>2011-06-03T06:44:22.000Z</time>
      </trkpt>
      <trkpt lat="45.02461" lon="5.51566">
        <ele>1175</ele>
        <time>2011-06-03T06:44:52.000Z</time>
      </trkpt>
      <trkpt lat="45.02516" lon="5.51558">
        <ele>1179</ele>
        <time>2011-06-03T06:45:27.000Z</time>
      </trkpt>
      <trkpt lat="45.02571" lon="5.51535">
        <ele>1184</ele>
        <time>2011-06-03T06:46:00.000Z</time>
      </trkpt>
      <trkpt lat="45.02621" lon="5.51518">
        <ele>1188</ele>
        <time>2011-06-03T06:46:26.000Z</time>
      </trkpt>
      <trkpt lat="45.02673" lon="5.51488">
        <ele>1191</ele>
        <time>2011-06-03T06:46:53.000Z</time>
      </trkpt>
      <trkpt lat="45.02705" lon="5.51423">
        <ele>1196</ele>
        <time>2011-06-03T06:47:22.000Z</time>
      </trkpt>
      <trkpt lat="45.02737" lon="5.51367">
        <ele>1200</ele>
        <time>2011-06-03T06:47:53.000Z</time>
      </trkpt>
      <trkpt lat="45.02784" lon="5.51296">
        <ele>1203</ele>
        <time>2011-06-03T06:48:19.000Z</time>
      </trkpt>
      <trkpt lat="45.02824" lon="5.51191">
        <ele>1204</ele>
        <time>2011-06-03T06:48:43.000Z</time>
      </trkpt>
      <trkpt lat="45.02887" lon="5.5116">
        <ele>1207</ele>
        <time>2011-06-03T06:49:06.000Z</time>
      </trkpt>
      <trkpt lat="45.02944" lon="5.51115">
        <ele>1210</ele>
        <time>2011-06-03T06:49:31.000Z</time>
      </trkpt>
      <trkpt lat="45.02981" lon="5.5102">
        <ele>1214</ele>
        <time>2011-06-03T06:50:01.000Z</time>
      </trkpt>
      <trkpt lat="45.03013" lon="5.50946">
        <ele>1213</ele>
        <time>2011-06-03T06:50:16.000Z</time>
      </trkpt>
      <trkpt lat="45.03067" lon="5.509">
        <ele>1215</ele>
        <time>2011-06-03T06:50:42.000Z</time>
      </trkpt>
      <trkpt lat="45.03118" lon="5.50857">
        <ele>1219</ele>
        <time>2011-06-03T06:51:10.000Z</time>
      </trkpt>
      <trkpt lat="45.03163" lon="5.50848">
        <ele>1221</ele>
        <time>2011-06-03T06:51:29.000Z</time>
      </trkpt>
      <trkpt lat="45.03182" lon="5.50788">
        <ele>1222</ele>
        <time>2011-06-03T06:51:44.000Z</time>
      </trkpt>
      <trkpt lat="45.03239" lon="5.50754">
        <ele>1223</ele>
        <time>2011-06-03T06:52:04.000Z</time>
      </trkpt>
      <trkpt lat="45.03277" lon="5.5076">
        <ele>1226</ele>
        <time>2011-06-03T06:52:22.000Z</time>
      </trkpt>
      <trkpt lat="45.03352" lon="5.50772">
        <ele>1225</ele>
        <time>2011-06-03T06:52:39.000Z</time>
      </trkpt>
      <trkpt lat="45.03402" lon="5.50749">
        <ele>1228</ele>
        <time>2011-06-03T06:52:58.000Z</time>
      </trkpt>
      <trkpt lat="45.03457" lon="5.50788">
        <ele>1228</ele>
        <time>2011-06-03T06:53:13.000Z</time>
      </trkpt>
      <trkpt lat="45.03535" lon="5.508">
        <ele>1226</ele>
        <time>2011-06-03T06:53:26.000Z</time>
      </trkpt>
      <trkpt lat="45.03573" lon="5.508">
        <ele>1230</ele>
        <time>2011-06-03T06:53:46.000Z</time>
      </trkpt>
      <trkpt lat="45.0361" lon="5.50795">
        <ele>1234</ele>
        <time>2011-06-03T06:54:09.000Z</time>
      </trkpt>
      <trkpt lat="45.0366" lon="5.50797">
        <ele>1237</ele>
        <time>2011-06-03T06:54:34.000Z</time>
      </trkpt>
      <trkpt lat="45.0368" lon="5.50779">
        <ele>1239</ele>
        <time>2011-06-03T06:54:50.000Z</time>
      </trkpt>
      <trkpt lat="45.03677" lon="5.50703">
        <ele>1240</ele>
        <time>2011-06-03T06:55:14.000Z</time>
      </trkpt>
      <trkpt lat="45.03706" lon="5.50654">
        <ele>1245</ele>
        <time>2011-06-03T06:55:38.000Z</time>
      </trkpt>
      <trkpt lat="45.03718" lon="5.50626">
        <ele>1248</ele>
        <time>2011-06-03T06:55:54.000Z</time>
      </trkpt>
      <trkpt lat="45.03729" lon="5.5056">
        <ele>1249</ele>
        <time>2011-06-03T06:56:16.000Z</time>
      </trkpt>
      <trkpt lat="45.03753" lon="5.50501">
        <ele>1251</ele>
        <time>2011-06-03T06:56:40.000Z</time>
      </trkpt>
      <trkpt lat="45.03775" lon="5.50461">
        <ele>1251</ele>
        <time>2011-06-03T06:56:57.000Z</time>
      </trkpt>
      <trkpt lat="45.03799" lon="5.50433">
        <ele>1256</ele>
        <time>2011-06-03T06:57:18.000Z</time>
      </trkpt>
      <trkpt lat="45.03817" lon="5.50387">
        <ele>1261</ele>
        <time>2011-06-03T06:57:40.000Z</time>
      </trkpt>
      <trkpt lat="45.03847" lon="5.50344">
        <ele>1263</ele>
        <time>2011-06-03T06:58:00.000Z</time>
      </trkpt>
      <trkpt lat="45.03868" lon="5.50312">
        <ele>1265</ele>
        <time>2011-06-03T06:58:19.000Z</time>
      </trkpt>
      <trkpt lat="45.0389" lon="5.50271">
        <ele>1270</ele>
        <time>2011-06-03T06:58:44.000Z</time>
      </trkpt>
      <trkpt lat="45.03895" lon="5.50231">
        <ele>1275</ele>
        <time>2011-06-03T06:59:08.000Z</time>
      </trkpt>
      <trkpt lat="45.03894" lon="5.50203">
        <ele>1278</ele>
        <time>2011-06-03T06:59:27.000Z</time>
      </trkpt>
      <trkpt lat="45.03909" lon="5.50159">
        <ele>1284</ele>
        <time>2011-06-03T06:59:54.000Z</time>
      </trkpt>
      <trkpt lat="45.03934" lon="5.50118">
        <ele>1292</ele>
        <time>2011-06-03T07:00:24.000Z</time>
      </trkpt>
      <trkpt lat="45.03973" lon="5.50089">
        <ele>1294</ele>
        <time>2011-06-03T07:00:46.000Z</time>
      </trkpt>
      <trkpt lat="45.04033" lon="5.50081">
        <ele>1291</ele>
        <time>2011-06-03T07:01:05.000Z</time>
      </trkpt>
      <trkpt lat="45.04084" lon="5.50083">
        <ele>1287</ele>
        <time>2011-06-03T07:01:25.000Z</time>
      </trkpt>
      <trkpt lat="45.04139" lon="5.50071">
        <ele>1283</ele>
        <time>2011-06-03T07:01:40.000Z</time>
      </trkpt>
      <trkpt lat="45.04215" lon="5.50027">
        <ele>1281</ele>
        <time>2011-06-03T07:02:00.000Z</time>
      </trkpt>
      <trkpt lat="45.04268" lon="5.49936">
        <ele>1284</ele>
        <time>2011-06-03T07:02:24.000Z</time>
      </trkpt>
      <trkpt lat="45.04286" lon="5.49851">
        <ele>1288</ele>
        <time>2011-06-03T07:02:49.000Z</time>
      </trkpt>
      <trkpt lat="45.04257" lon="5.49765">
        <ele>1295</ele>
        <time>2011-06-03T07:03:22.000Z</time>
      </trkpt>
      <trkpt lat="45.04215" lon="5.49733">
        <ele>1301</ele>
        <time>2011-06-03T07:03:51.000Z</time>
      </trkpt>
      <trkpt lat="45.04173" lon="5.49707">
        <ele>1308</ele>
        <time>2011-06-03T07:04:21.000Z</time>
      </trkpt>
      <trkpt lat="45.04121" lon="5.49686">
        <ele>1315</ele>
        <time>2011-06-03T07:04:55.000Z</time>
      </trkpt>
      <trkpt lat="45.0407" lon="5.49676">
        <ele>1321</ele>
        <time>2011-06-03T07:05:28.000Z</time>
      </trkpt>
      <trkpt lat="45.04024" lon="5.4965">
        <ele>1328</ele>
        <time>2011-06-03T07:06:02.000Z</time>
      </trkpt>
      <trkpt lat="45.03985" lon="5.49636">
        <ele>1334</ele>
        <time>2011-06-03T07:06:33.000Z</time>
      </trkpt>
      <trkpt lat="45.03947" lon="5.49629">
        <ele>1339</ele>
        <time>2011-06-03T07:07:00.000Z</time>
      </trkpt>
      <trkpt lat="45.03906" lon="5.49596">
        <ele>1345</ele>
        <time>2011-06-03T07:07:32.000Z</time>
      </trkpt>
      <trkpt lat="45.03921" lon="5.49582">
        <ele>1348</ele>
        <time>2011-06-03T07:07:48.000Z</time>
      </trkpt>
      <trkpt lat="45.03948" lon="5.49571">
        <ele>1353</ele>
        <time>2011-06-03T07:08:17.000Z</time>
      </trkpt>
      <trkpt lat="45.0396" lon="5.49551">
        <ele>1357</ele>
        <time>2011-06-03T07:08:42.000Z</time>
      </trkpt>
      <trkpt lat="45.03969" lon="5.4954">
        <ele>1360</ele>
        <time>2011-06-03T07:09:00.000Z</time>
      </trkpt>
      <trkpt lat="45.03975" lon="5.49527">
        <ele>1364</ele>
        <time>2011-06-03T07:09:21.000Z</time>
      </trkpt>
      <trkpt lat="45.03992" lon="5.4951">
        <ele>1368</ele>
        <time>2011-06-03T07:09:44.000Z</time>
      </trkpt>
      <trkpt lat="45.04017" lon="5.49509">
        <ele>1372</ele>
        <time>2011-06-03T07:10:11.000Z</time>
      </trkpt>
      <trkpt lat="45.04038" lon="5.49507">
        <ele>1375</ele>
        <time>2011-06-03T07:10:34.000Z</time>
      </trkpt>
      <trkpt lat="45.04066" lon="5.49495">
        <ele>1379</ele>
        <time>2011-06-03T07:11:05.000Z</time>
      </trkpt>
      <trkpt lat="45.04084" lon="5.49475">
        <ele>1383</ele>
        <time>2011-06-03T07:11:31.000Z</time>
      </trkpt>
      <trkpt lat="45.04087" lon="5.49446">
        <ele>1384</ele>
        <time>2011-06-03T07:11:53.000Z</time>
      </trkpt>
      <trkpt lat="45.04077" lon="5.49412">
        <ele>1389</ele>
        <time>2011-06-03T07:12:36.000Z</time>
      </trkpt>
      <trkpt lat="45.04066" lon="5.4939">
        <ele>1395</ele>
        <time>2011-06-03T07:13:07.000Z</time>
      </trkpt>
      <trkpt lat="45.04075" lon="5.49365">
        <ele>1396</ele>
        <time>2011-06-03T07:13:22.000Z</time>
      </trkpt>
      <trkpt lat="45.04095" lon="5.49361">
        <ele>1399</ele>
        <time>2011-06-03T07:13:51.000Z</time>
      </trkpt>
      <trkpt lat="45.04118" lon="5.49355">
        <ele>1405</ele>
        <time>2011-06-03T07:14:19.000Z</time>
      </trkpt>
      <trkpt lat="45.04135" lon="5.49351">
        <ele>1406</ele>
        <time>2011-06-03T07:14:40.000Z</time>
      </trkpt>
      <trkpt lat="45.04156" lon="5.49351">
        <ele>1408</ele>
        <time>2011-06-03T07:15:01.000Z</time>
      </trkpt>
      <trkpt lat="45.04183" lon="5.49344">
        <ele>1412</ele>
        <time>2011-06-03T07:15:27.000Z</time>
      </trkpt>
      <trkpt lat="45.04193" lon="5.49342">
        <ele>1414</ele>
        <time>2011-06-03T07:15:46.000Z</time>
      </trkpt>
      <trkpt lat="45.04248" lon="5.49334">
        <ele>1418</ele>
        <time>2011-06-03T07:16:18.000Z</time>
      </trkpt>
      <trkpt lat="45.04295" lon="5.49333">
        <ele>1419</ele>
        <time>2011-06-03T07:16:42.000Z</time>
      </trkpt>
      <trkpt lat="45.04323" lon="5.4933">
        <ele>1420</ele>
        <time>2011-06-03T07:16:57.000Z</time>
      </trkpt>
      <trkpt lat="45.04361" lon="5.49327">
        <ele>1424</ele>
        <time>2011-06-03T07:17:22.000Z</time>
      </trkpt>
      <trkpt lat="45.04377" lon="5.49318">
        <ele>1427</ele>
        <time>2011-06-03T07:17:44.000Z</time>
      </trkpt>
      <trkpt lat="45.044" lon="5.49304">
        <ele>1429</ele>
        <time>2011-06-03T07:18:04.000Z</time>
      </trkpt>
      <trkpt lat="45.04419" lon="5.49299">
        <ele>1431</ele>
        <time>2011-06-03T07:18:19.000Z</time>
      </trkpt>
      <trkpt lat="45.04453" lon="5.49286">
        <ele>1435</ele>
        <time>2011-06-03T07:18:45.000Z</time>
      </trkpt>
      <trkpt lat="45.04481" lon="5.49271">
        <ele>1439</ele>
        <time>2011-06-03T07:19:06.000Z</time>
      </trkpt>
      <trkpt lat="45.045" lon="5.49248">
        <ele>1442</ele>
        <time>2011-06-03T07:19:24.000Z</time>
      </trkpt>
      <trkpt lat="45.04516" lon="5.49218">
        <ele>1445</ele>
        <time>2011-06-03T07:19:41.000Z</time>
      </trkpt>
      <trkpt lat="45.04527" lon="5.49193">
        <ele>1448</ele>
        <time>2011-06-03T07:20:03.000Z</time>
      </trkpt>
      <trkpt lat="45.04529" lon="5.49165">
        <ele>1452</ele>
        <time>2011-06-03T07:20:27.000Z</time>
      </trkpt>
      <trkpt lat="45.04536" lon="5.49133">
        <ele>1457</ele>
        <time>2011-06-03T07:20:57.000Z</time>
      </trkpt>
      <trkpt lat="45.0454" lon="5.49105">
        <ele>1459</ele>
        <time>2011-06-03T07:21:21.000Z</time>
      </trkpt>
      <trkpt lat="45.04543" lon="5.4908">
        <ele>1462</ele>
        <time>2011-06-03T07:21:41.000Z</time>
      </trkpt>
      <trkpt lat="45.04552" lon="5.49063">
        <ele>1463</ele>
        <time>2011-06-03T07:21:58.000Z</time>
      </trkpt>
      <trkpt lat="45.04581" lon="5.49043">
        <ele>1466</ele>
        <time>2011-06-03T07:22:24.000Z</time>
      </trkpt>
      <trkpt lat="45.04612" lon="5.49026">
        <ele>1471</ele>
        <time>2011-06-03T07:22:52.000Z</time>
      </trkpt>
      <trkpt lat="45.04641" lon="5.49022">
        <ele>1476</ele>
        <time>2011-06-03T07:23:20.000Z</time>
      </trkpt>
      <trkpt lat="45.04663" lon="5.49012">
        <ele>1480</ele>
        <time>2011-06-03T07:23:38.000Z</time>
      </trkpt>
      <trkpt lat="45.0469" lon="5.48989">
        <ele>1486</ele>
        <time>2011-06-03T07:24:06.000Z</time>
      </trkpt>
      <trkpt lat="45.04719" lon="5.48951">
        <ele>1490</ele>
        <time>2011-06-03T07:24:36.000Z</time>
      </trkpt>
      <trkpt lat="45.0476" lon="5.48907">
        <ele>1495</ele>
        <time>2011-06-03T07:25:12.000Z</time>
      </trkpt>
      <trkpt lat="45.04799" lon="5.48867">
        <ele>1501</ele>
        <time>2011-06-03T07:25:46.000Z</time>
      </trkpt>
      <trkpt lat="45.04829" lon="5.48828">
        <ele>1505</ele>
        <time>2011-06-03T07:26:15.000Z</time>
      </trkpt>
      <trkpt lat="45.04859" lon="5.48769">
        <ele>1511</ele>
        <time>2011-06-03T07:26:45.000Z</time>
      </trkpt>
      <trkpt lat="45.04896" lon="5.48651">
        <ele>1506</ele>
        <time>2011-06-03T07:27:04.000Z</time>
      </trkpt>
      <trkpt lat="45.04842" lon="5.48574">
        <ele>1506</ele>
        <time>2011-06-03T07:27:29.000Z</time>
      </trkpt>
      <trkpt lat="45.04762" lon="5.48519">
        <ele>1509</ele>
        <time>2011-06-03T07:28:01.000Z</time>
      </trkpt>
      <trkpt lat="45.04686" lon="5.48478">
        <ele>1513</ele>
        <time>2011-06-03T07:28:37.000Z</time>
      </trkpt>
      <trkpt lat="45.04605" lon="5.48418">
        <ele>1518</ele>
        <time>2011-06-03T07:29:17.000Z</time>
      </trkpt>
      <trkpt lat="45.04529" lon="5.48348">
        <ele>1520</ele>
        <time>2011-06-03T07:29:54.000Z</time>
      </trkpt>
      <trkpt lat="45.04501" lon="5.48304">
        <ele>1520</ele>
        <time>2011-06-03T07:30:53.000Z</time>
      </trkpt>
      <trkpt lat="45.04488" lon="5.48325">
        <ele>1518</ele>
        <time>2011-06-03T07:31:02.000Z</time>
      </trkpt>
      <trkpt lat="45.04459" lon="5.4833">
        <ele>1506</ele>
        <time>2011-06-03T07:31:17.000Z</time>
      </trkpt>
      <trkpt lat="45.04387" lon="5.48162">
        <ele>1488</ele>
        <time>2011-06-03T07:31:32.000Z</time>
      </trkpt>
      <trkpt lat="45.04506" lon="5.48083">
        <ele>1472</ele>
        <time>2011-06-03T07:31:46.000Z</time>
      </trkpt>
      <trkpt lat="45.04709" lon="5.48026">
        <ele>1452</ele>
        <time>2011-06-03T07:32:07.000Z</time>
      </trkpt>
      <trkpt lat="45.0488" lon="5.48002">
        <ele>1436</ele>
        <time>2011-06-03T07:32:27.000Z</time>
      </trkpt>
      <trkpt lat="45.05026" lon="5.47992">
        <ele>1423</ele>
        <time>2011-06-03T07:32:43.000Z</time>
      </trkpt>
      <trkpt lat="45.05095" lon="5.47993">
        <ele>1416</ele>
        <time>2011-06-03T07:32:55.000Z</time>
      </trkpt>
      <trkpt lat="45.04987" lon="5.47965">
        <ele>1409</ele>
        <time>2011-06-03T07:33:09.000Z</time>
      </trkpt>
      <trkpt lat="45.04794" lon="5.47892">
        <ele>1392</ele>
        <time>2011-06-03T07:33:27.000Z</time>
      </trkpt>
      <trkpt lat="45.04647" lon="5.47828">
        <ele>1378</ele>
        <time>2011-06-03T07:33:42.000Z</time>
      </trkpt>
      <trkpt lat="45.04537" lon="5.47735">
        <ele>1371</ele>
        <time>2011-06-03T07:33:57.000Z</time>
      </trkpt>
      <trkpt lat="45.04496" lon="5.47655">
        <ele>1366</ele>
        <time>2011-06-03T07:34:09.000Z</time>
      </trkpt>
      <trkpt lat="45.04444" lon="5.47646">
        <ele>1364</ele>
        <time>2011-06-03T07:34:19.000Z</time>
      </trkpt>
      <trkpt lat="45.04362" lon="5.47658">
        <ele>1363</ele>
        <time>2011-06-03T07:34:38.000Z</time>
      </trkpt>
      <trkpt lat="45.04282" lon="5.47647">
        <ele>1359</ele>
        <time>2011-06-03T07:34:55.000Z</time>
      </trkpt>
      <trkpt lat="45.04231" lon="5.47647">
        <ele>1360</ele>
        <time>2011-06-03T07:35:11.000Z</time>
      </trkpt>
      <trkpt lat="45.0414" lon="5.47669">
        <ele>1358</ele>
        <time>2011-06-03T07:35:31.000Z</time>
      </trkpt>
      <trkpt lat="45.04023" lon="5.47714">
        <ele>1350</ele>
        <time>2011-06-03T07:35:45.000Z</time>
      </trkpt>
      <trkpt lat="45.03814" lon="5.47796">
        <ele>1332</ele>
        <time>2011-06-03T07:36:04.000Z</time>
      </trkpt>
      <trkpt lat="45.03658" lon="5.47944">
        <ele>1325</ele>
        <time>2011-06-03T07:36:26.000Z</time>
      </trkpt>
      <trkpt lat="45.03502" lon="5.47974">
        <ele>1314</ele>
        <time>2011-06-03T07:36:49.000Z</time>
      </trkpt>
      <trkpt lat="45.03369" lon="5.47953">
        <ele>1306</ele>
        <time>2011-06-03T07:37:04.000Z</time>
      </trkpt>
      <trkpt lat="45.03242" lon="5.47785">
        <ele>1293</ele>
        <time>2011-06-03T07:37:22.000Z</time>
      </trkpt>
      <trkpt lat="45.03147" lon="5.47781">
        <ele>1290</ele>
        <time>2011-06-03T07:37:38.000Z</time>
      </trkpt>
      <trkpt lat="45.03036" lon="5.47739">
        <ele>1290</ele>
        <time>2011-06-03T07:38:08.000Z</time>
      </trkpt>
      <trkpt lat="45.02923" lon="5.47718">
        <ele>1289</ele>
        <time>2011-06-03T07:38:37.000Z</time>
      </trkpt>
      <trkpt lat="45.02804" lon="5.47703">
        <ele>1286</ele>
        <time>2011-06-03T07:39:05.000Z</time>
      </trkpt>
      <trkpt lat="45.02657" lon="5.47714">
        <ele>1278</ele>
        <time>2011-06-03T07:39:32.000Z</time>
      </trkpt>
      <trkpt lat="45.02529" lon="5.47683">
        <ele>1273</ele>
        <time>2011-06-03T07:39:57.000Z</time>
      </trkpt>
      <trkpt lat="45.02464" lon="5.47669">
        <ele>1278</ele>
        <time>2011-06-03T07:40:23.000Z</time>
      </trkpt>
      <trkpt lat="45.02381" lon="5.47652">
        <ele>1281</ele>
        <time>2011-06-03T07:40:56.000Z</time>
      </trkpt>
      <trkpt lat="45.02304" lon="5.47632">
        <ele>1283</ele>
        <time>2011-06-03T07:41:28.000Z</time>
      </trkpt>
      <trkpt lat="45.02233" lon="5.47608">
        <ele>1284</ele>
        <time>2011-06-03T07:41:54.000Z</time>
      </trkpt>
      <trkpt lat="45.02146" lon="5.47587">
        <ele>1288</ele>
        <time>2011-06-03T07:42:24.000Z</time>
      </trkpt>
      <trkpt lat="45.02063" lon="5.47563">
        <ele>1289</ele>
        <time>2011-06-03T07:42:49.000Z</time>
      </trkpt>
      <trkpt lat="45.02035" lon="5.47494">
        <ele>1292</ele>
        <time>2011-06-03T07:43:11.000Z</time>
      </trkpt>
      <trkpt lat="45.02013" lon="5.47419">
        <ele>1295</ele>
        <time>2011-06-03T07:43:37.000Z</time>
      </trkpt>
      <trkpt lat="45.01978" lon="5.47347">
        <ele>1298</ele>
        <time>2011-06-03T07:44:03.000Z</time>
      </trkpt>
      <trkpt lat="45.01904" lon="5.47303">
        <ele>1301</ele>
        <time>2011-06-03T07:44:38.000Z</time>
      </trkpt>
      <trkpt lat="45.01838" lon="5.47259">
        <ele>1304</ele>
        <time>2011-06-03T07:45:06.000Z</time>
      </trkpt>
      <trkpt lat="45.01758" lon="5.47236">
        <ele>1306</ele>
        <time>2011-06-03T07:45:34.000Z</time>
      </trkpt>
      <trkpt lat="45.01695" lon="5.47235">
        <ele>1307</ele>
        <time>2011-06-03T07:45:57.000Z</time>
      </trkpt>
      <trkpt lat="45.01637" lon="5.47228">
        <ele>1310</ele>
        <time>2011-06-03T07:46:22.000Z</time>
      </trkpt>
      <trkpt lat="45.01567" lon="5.47262">
        <ele>1311</ele>
        <time>2011-06-03T07:46:44.000Z</time>
      </trkpt>
      <trkpt lat="45.01535" lon="5.47221">
        <ele>1307</ele>
        <time>2011-06-03T07:46:58.000Z</time>
      </trkpt>
      <trkpt lat="45.01491" lon="5.47158">
        <ele>1307</ele>
        <time>2011-06-03T07:47:19.000Z</time>
      </trkpt>
      <trkpt lat="45.0146" lon="5.4715">
        <ele>1307</ele>
        <time>2011-06-03T07:47:32.000Z</time>
      </trkpt>
      <trkpt lat="45.01437" lon="5.47118">
        <ele>1306</ele>
        <time>2011-06-03T07:47:49.000Z</time>
      </trkpt>
      <trkpt lat="45.01443" lon="5.47022">
        <ele>1301</ele>
        <time>2011-06-03T07:48:09.000Z</time>
      </trkpt>
      <trkpt lat="45.01463" lon="5.46977">
        <ele>1295</ele>
        <time>2011-06-03T07:48:23.000Z</time>
      </trkpt>
      <trkpt lat="45.0148" lon="5.4695">
        <ele>1292</ele>
        <time>2011-06-03T07:48:44.000Z</time>
      </trkpt>
      <trkpt lat="45.01497" lon="5.46935">
        <ele>1293</ele>
        <time>2011-06-03T07:49:05.000Z</time>
      </trkpt>
      <trkpt lat="45.01531" lon="5.46902">
        <ele>1284</ele>
        <time>2011-06-03T07:49:23.000Z</time>
      </trkpt>
      <trkpt lat="45.01568" lon="5.46875">
        <ele>1278</ele>
        <time>2011-06-03T07:49:46.000Z</time>
      </trkpt>
      <trkpt lat="45.01608" lon="5.46853">
        <ele>1275</ele>
        <time>2011-06-03T07:50:04.000Z</time>
      </trkpt>
      <trkpt lat="45.01632" lon="5.46829">
        <ele>1270</ele>
        <time>2011-06-03T07:50:17.000Z</time>
      </trkpt>
      <trkpt lat="45.01666" lon="5.46789">
        <ele>1263</ele>
        <time>2011-06-03T07:50:39.000Z</time>
      </trkpt>
      <trkpt lat="45.01685" lon="5.46756">
        <ele>1257</ele>
        <time>2011-06-03T07:51:02.000Z</time>
      </trkpt>
      <trkpt lat="45.01717" lon="5.46712">
        <ele>1250</ele>
        <time>2011-06-03T07:51:20.000Z</time>
      </trkpt>
      <trkpt lat="45.01764" lon="5.46649">
        <ele>1241</ele>
        <time>2011-06-03T07:51:41.000Z</time>
      </trkpt>
      <trkpt lat="45.01802" lon="5.46583">
        <ele>1232</ele>
        <time>2011-06-03T07:51:57.000Z</time>
      </trkpt>
      <trkpt lat="45.0182" lon="5.46507">
        <ele>1225</ele>
        <time>2011-06-03T07:52:08.000Z</time>
      </trkpt>
      <trkpt lat="45.01789" lon="5.46449">
        <ele>1214</ele>
        <time>2011-06-03T07:52:25.000Z</time>
      </trkpt>
      <trkpt lat="45.01746" lon="5.46473">
        <ele>1206</ele>
        <time>2011-06-03T07:52:37.000Z</time>
      </trkpt>
      <trkpt lat="45.01743" lon="5.46547">
        <ele>1203</ele>
        <time>2011-06-03T07:52:50.000Z</time>
      </trkpt>
      <trkpt lat="45.01674" lon="5.46616">
        <ele>1197</ele>
        <time>2011-06-03T07:53:05.000Z</time>
      </trkpt>
      <trkpt lat="45.01542" lon="5.46674">
        <ele>1174</ele>
        <time>2011-06-03T07:53:22.000Z</time>
      </trkpt>
      <trkpt lat="45.01494" lon="5.46691">
        <ele>1159</ele>
        <time>2011-06-03T07:53:36.000Z</time>
      </trkpt>
      <trkpt lat="45.01538" lon="5.46632">
        <ele>1153</ele>
        <time>2011-06-03T07:53:48.000Z</time>
      </trkpt>
      <trkpt lat="45.01558" lon="5.4654">
        <ele>1141</ele>
        <time>2011-06-03T07:54:05.000Z</time>
      </trkpt>
      <trkpt lat="45.01509" lon="5.46583">
        <ele>1135</ele>
        <time>2011-06-03T07:54:15.000Z</time>
      </trkpt>
      <trkpt lat="45.0143" lon="5.46633">
        <ele>1122</ele>
        <time>2011-06-03T07:54:35.000Z</time>
      </trkpt>
      <trkpt lat="45.01415" lon="5.46615">
        <ele>1114</ele>
        <time>2011-06-03T07:54:52.000Z</time>
      </trkpt>
      <trkpt lat="45.01411" lon="5.46597">
        <ele>1109</ele>
        <time>2011-06-03T07:55:03.000Z</time>
      </trkpt>
      <trkpt lat="45.01352" lon="5.46607">
        <ele>1096</ele>
        <time>2011-06-03T07:55:20.000Z</time>
      </trkpt>
      <trkpt lat="45.01348" lon="5.46601">
        <ele>1093</ele>
        <time>2011-06-03T07:56:09.000Z</time>
      </trkpt>
      <trkpt lat="45.01374" lon="5.46558">
        <ele>1092</ele>
        <time>2011-06-03T07:56:58.000Z</time>
      </trkpt>
      <trkpt lat="45.01315" lon="5.46567">
        <ele>1085</ele>
        <time>2011-06-03T07:57:11.000Z</time>
      </trkpt>
      <trkpt lat="45.01184" lon="5.46603">
        <ele>1068</ele>
        <time>2011-06-03T07:57:24.000Z</time>
      </trkpt>
      <trkpt lat="45.00993" lon="5.46608">
        <ele>1044</ele>
        <time>2011-06-03T07:57:42.000Z</time>
      </trkpt>
      <trkpt lat="45.00808" lon="5.46558">
        <ele>1017</ele>
        <time>2011-06-03T07:58:00.000Z</time>
      </trkpt>
      <trkpt lat="45.00845" lon="5.4654">
        <ele>1009</ele>
        <time>2011-06-03T07:58:13.000Z</time>
      </trkpt>
      <trkpt lat="45.00987" lon="5.46508">
        <ele>999</ele>
        <time>2011-06-03T07:58:31.000Z</time>
      </trkpt>
      <trkpt lat="45.01088" lon="5.46451">
        <ele>985</ele>
        <time>2011-06-03T07:58:46.000Z</time>
      </trkpt>
      <trkpt lat="45.01013" lon="5.46462">
        <ele>976</ele>
        <time>2011-06-03T07:58:58.000Z</time>
      </trkpt>
      <trkpt lat="45.00882" lon="5.46421">
        <ele>959</ele>
        <time>2011-06-03T07:59:13.000Z</time>
      </trkpt>
      <trkpt lat="45.0077" lon="5.46372">
        <ele>945</ele>
        <time>2011-06-03T07:59:26.000Z</time>
      </trkpt>
      <trkpt lat="45.006" lon="5.46341">
        <ele>920</ele>
        <time>2011-06-03T07:59:41.000Z</time>
      </trkpt>
      <trkpt lat="45.00438" lon="5.46224">
        <ele>895</ele>
        <time>2011-06-03T07:59:56.000Z</time>
      </trkpt>
      <trkpt lat="45.00336" lon="5.46149">
        <ele>875</ele>
        <time>2011-06-03T08:00:08.000Z</time>
      </trkpt>
      <trkpt lat="45.00249" lon="5.46074">
        <ele>856</ele>
        <time>2011-06-03T08:00:21.000Z</time>
      </trkpt>
      <trkpt lat="45.0017" lon="5.46039">
        <ele>840</ele>
        <time>2011-06-03T08:00:33.000Z</time>
      </trkpt>
      <trkpt lat="45.00134" lon="5.45915">
        <ele>827</ele>
        <time>2011-06-03T08:00:43.000Z</time>
      </trkpt>
      <trkpt lat="45.00146" lon="5.45722">
        <ele>810</ele>
        <time>2011-06-03T08:00:59.000Z</time>
      </trkpt>
      <trkpt lat="45.00263" lon="5.45583">
        <ele>795</ele>
        <time>2011-06-03T08:01:14.000Z</time>
      </trkpt>
      <trkpt lat="45.00329" lon="5.45276">
        <ele>771</ele>
        <time>2011-06-03T08:01:31.000Z</time>
      </trkpt>
      <trkpt lat="45.00324" lon="5.45112">
        <ele>753</ele>
        <time>2011-06-03T08:01:45.000Z</time>
      </trkpt>
      <trkpt lat="45.00387" lon="5.4518">
        <ele>748</ele>
        <time>2011-06-03T08:01:58.000Z</time>
      </trkpt>
      <trkpt lat="45.00469" lon="5.45296">
        <ele>738</ele>
        <time>2011-06-03T08:02:12.000Z</time>
      </trkpt>
      <trkpt lat="45.00504" lon="5.45197">
        <ele>731</ele>
        <time>2011-06-03T08:02:21.000Z</time>
      </trkpt>
      <trkpt lat="45.00504" lon="5.45081">
        <ele>724</ele>
        <time>2011-06-03T08:02:33.000Z</time>
      </trkpt>
      <trkpt lat="45.00472" lon="5.44947">
        <ele>722</ele>
        <time>2011-06-03T08:02:50.000Z</time>
      </trkpt>
      <trkpt lat="45.00406" lon="5.44759">
        <ele>722</ele>
        <time>2011-06-03T08:03:17.000Z</time>
      </trkpt>
      <trkpt lat="45.00353" lon="5.44746">
        <ele>726</ele>
        <time>2011-06-03T08:03:37.000Z</time>
      </trkpt>
      <trkpt lat="45.00296" lon="5.44759">
        <ele>732</ele>
        <time>2011-06-03T08:04:02.000Z</time>
      </trkpt>
      <trkpt lat="45.00208" lon="5.4475">
        <ele>735</ele>
        <time>2011-06-03T08:04:30.000Z</time>
      </trkpt>
      <trkpt lat="45.00168" lon="5.44705">
        <ele>739</ele>
        <time>2011-06-03T08:05:33.000Z</time>
      </trkpt>
      <trkpt lat="45.00093" lon="5.44704">
        <ele>743</ele>
        <time>2011-06-03T08:06:02.000Z</time>
      </trkpt>
      <trkpt lat="45.0004" lon="5.44685">
        <ele>748</ele>
        <time>2011-06-03T08:06:30.000Z</time>
      </trkpt>
      <trkpt lat="45.00032" lon="5.4461">
        <ele>752</ele>
        <time>2011-06-03T08:06:54.000Z</time>
      </trkpt>
      <trkpt lat="44.99994" lon="5.44508">
        <ele>752</ele>
        <time>2011-06-03T08:07:17.000Z</time>
      </trkpt>
      <trkpt lat="44.99997" lon="5.44423">
        <ele>753</ele>
        <time>2011-06-03T08:07:35.000Z</time>
      </trkpt>
      <trkpt lat="45.00064" lon="5.44363">
        <ele>752</ele>
        <time>2011-06-03T08:07:53.000Z</time>
      </trkpt>
      <trkpt lat="45.00118" lon="5.44261">
        <ele>743</ele>
        <time>2011-06-03T08:08:03.000Z</time>
      </trkpt>
      <trkpt lat="45.00102" lon="5.44164">
        <ele>738</ele>
        <time>2011-06-03T08:08:14.000Z</time>
      </trkpt>
      <trkpt lat="44.9998" lon="5.44193">
        <ele>727</ele>
        <time>2011-06-03T08:08:31.000Z</time>
      </trkpt>
      <trkpt lat="44.99883" lon="5.44219">
        <ele>714</ele>
        <time>2011-06-03T08:08:46.000Z</time>
      </trkpt>
      <trkpt lat="44.99908" lon="5.44114">
        <ele>704</ele>
        <time>2011-06-03T08:08:57.000Z</time>
      </trkpt>
      <trkpt lat="44.99904" lon="5.44041">
        <ele>697</ele>
        <time>2011-06-03T08:09:07.000Z</time>
      </trkpt>
      <trkpt lat="44.99899" lon="5.43995">
        <ele>696</ele>
        <time>2011-06-03T08:09:33.000Z</time>
      </trkpt>
      <trkpt lat="44.99901" lon="5.43892">
        <ele>696</ele>
        <time>2011-06-03T08:09:50.000Z</time>
      </trkpt>
      <trkpt lat="44.99908" lon="5.43831">
        <ele>699</ele>
        <time>2011-06-03T08:10:11.000Z</time>
      </trkpt>
      <trkpt lat="44.99926" lon="5.43777">
        <ele>704</ele>
        <time>2011-06-03T08:10:34.000Z</time>
      </trkpt>
      <trkpt lat="44.99956" lon="5.43729">
        <ele>706</ele>
        <time>2011-06-03T08:10:58.000Z</time>
      </trkpt>
      <trkpt lat="44.99988" lon="5.43712">
        <ele>711</ele>
        <time>2011-06-03T08:11:21.000Z</time>
      </trkpt>
      <trkpt lat="45.00001" lon="5.43674">
        <ele>717</ele>
        <time>2011-06-03T08:11:48.000Z</time>
      </trkpt>
      <trkpt lat="44.99982" lon="5.43626">
        <ele>720</ele>
        <time>2011-06-03T08:12:14.000Z</time>
      </trkpt>
      <trkpt lat="44.99951" lon="5.43604">
        <ele>725</ele>
        <time>2011-06-03T08:12:38.000Z</time>
      </trkpt>
      <trkpt lat="44.99925" lon="5.43574">
        <ele>729</ele>
        <time>2011-06-03T08:13:03.000Z</time>
      </trkpt>
      <trkpt lat="44.99896" lon="5.43579">
        <ele>732</ele>
        <time>2011-06-03T08:13:21.000Z</time>
      </trkpt>
      <trkpt lat="44.9984" lon="5.43567">
        <ele>734</ele>
        <time>2011-06-03T08:13:43.000Z</time>
      </trkpt>
      <trkpt lat="44.99799" lon="5.43551">
        <ele>734</ele>
        <time>2011-06-03T08:13:57.000Z</time>
      </trkpt>
      <trkpt lat="44.99737" lon="5.43585">
        <ele>733</ele>
        <time>2011-06-03T08:14:13.000Z</time>
      </trkpt>
      <trkpt lat="44.99677" lon="5.43607">
        <ele>735</ele>
        <time>2011-06-03T08:14:36.000Z</time>
      </trkpt>
      <trkpt lat="44.99617" lon="5.43606">
        <ele>738</ele>
        <time>2011-06-03T08:14:59.000Z</time>
      </trkpt>
      <trkpt lat="44.99552" lon="5.43586">
        <ele>742</ele>
        <time>2011-06-03T08:15:25.000Z</time>
      </trkpt>
      <trkpt lat="44.99493" lon="5.43585">
        <ele>747</ele>
        <time>2011-06-03T08:15:52.000Z</time>
      </trkpt>
      <trkpt lat="44.99459" lon="5.4357">
        <ele>751</ele>
        <time>2011-06-03T08:16:13.000Z</time>
      </trkpt>
      <trkpt lat="44.99421" lon="5.4354">
        <ele>754</ele>
        <time>2011-06-03T08:16:37.000Z</time>
      </trkpt>
      <trkpt lat="44.99393" lon="5.43529">
        <ele>757</ele>
        <time>2011-06-03T08:16:54.000Z</time>
      </trkpt>
      <trkpt lat="44.9937" lon="5.43513">
        <ele>759</ele>
        <time>2011-06-03T08:17:10.000Z</time>
      </trkpt>
      <trkpt lat="44.99321" lon="5.43508">
        <ele>764</ele>
        <time>2011-06-03T08:17:39.000Z</time>
      </trkpt>
      <trkpt lat="44.99291" lon="5.43505">
        <ele>770</ele>
        <time>2011-06-03T08:18:04.000Z</time>
      </trkpt>
      <trkpt lat="44.9926" lon="5.43499">
        <ele>775</ele>
        <time>2011-06-03T08:18:27.000Z</time>
      </trkpt>
      <trkpt lat="44.99232" lon="5.43478">
        <ele>781</ele>
        <time>2011-06-03T08:18:54.000Z</time>
      </trkpt>
      <trkpt lat="44.99201" lon="5.43469">
        <ele>785</ele>
        <time>2011-06-03T08:19:20.000Z</time>
      </trkpt>
      <trkpt lat="44.99166" lon="5.43465">
        <ele>791</ele>
        <time>2011-06-03T08:19:47.000Z</time>
      </trkpt>
      <trkpt lat="44.99125" lon="5.43454">
        <ele>797</ele>
        <time>2011-06-03T08:20:20.000Z</time>
      </trkpt>
      <trkpt lat="44.99097" lon="5.43456">
        <ele>803</ele>
        <time>2011-06-03T08:20:45.000Z</time>
      </trkpt>
      <trkpt lat="44.9906" lon="5.43459">
        <ele>808</ele>
        <time>2011-06-03T08:21:11.000Z</time>
      </trkpt>
      <trkpt lat="44.99009" lon="5.43471">
        <ele>811</ele>
        <time>2011-06-03T08:21:39.000Z</time>
      </trkpt>
      <trkpt lat="44.98972" lon="5.43466">
        <ele>813</ele>
        <time>2011-06-03T08:22:01.000Z</time>
      </trkpt>
      <trkpt lat="44.98922" lon="5.4345">
        <ele>817</ele>
        <time>2011-06-03T08:22:31.000Z</time>
      </trkpt>
      <trkpt lat="44.98879" lon="5.43448">
        <ele>821</ele>
        <time>2011-06-03T08:22:55.000Z</time>
      </trkpt>
      <trkpt lat="44.98834" lon="5.43439">
        <ele>824</ele>
        <time>2011-06-03T08:23:19.000Z</time>
      </trkpt>
      <trkpt lat="44.98791" lon="5.43427">
        <ele>827</ele>
        <time>2011-06-03T08:23:43.000Z</time>
      </trkpt>
      <trkpt lat="44.98759" lon="5.43416">
        <ele>829</ele>
        <time>2011-06-03T08:24:02.000Z</time>
      </trkpt>
      <trkpt lat="44.98743" lon="5.43406">
        <ele>830</ele>
        <time>2011-06-03T08:24:14.000Z</time>
      </trkpt>
      <trkpt lat="44.98707" lon="5.43408">
        <ele>833</ele>
        <time>2011-06-03T08:24:32.000Z</time>
      </trkpt>
      <trkpt lat="44.9866" lon="5.43413">
        <ele>836</ele>
        <time>2011-06-03T08:24:57.000Z</time>
      </trkpt>
      <trkpt lat="44.98644" lon="5.43419">
        <ele>838</ele>
        <time>2011-06-03T08:25:14.000Z</time>
      </trkpt>
      <trkpt lat="44.98628" lon="5.43409">
        <ele>840</ele>
        <time>2011-06-03T08:25:33.000Z</time>
      </trkpt>
      <trkpt lat="44.98612" lon="5.43403">
        <ele>841</ele>
        <time>2011-06-03T08:25:54.000Z</time>
      </trkpt>
      <trkpt lat="44.98589" lon="5.43396">
        <ele>845</ele>
        <time>2011-06-03T08:26:17.000Z</time>
      </trkpt>
      <trkpt lat="44.98573" lon="5.43394">
        <ele>848</ele>
        <time>2011-06-03T08:26:37.000Z</time>
      </trkpt>
      <trkpt lat="44.98525" lon="5.43389">
        <ele>852</ele>
        <time>2011-06-03T08:27:04.000Z</time>
      </trkpt>
      <trkpt lat="44.9846" lon="5.43356">
        <ele>852</ele>
        <time>2011-06-03T08:27:26.000Z</time>
      </trkpt>
      <trkpt lat="44.98367" lon="5.43371">
        <ele>851</ele>
        <time>2011-06-03T08:27:46.000Z</time>
      </trkpt>
      <trkpt lat="44.98287" lon="5.43374">
        <ele>852</ele>
        <time>2011-06-03T08:28:06.000Z</time>
      </trkpt>
      <trkpt lat="44.98218" lon="5.43358">
        <ele>850</ele>
        <time>2011-06-03T08:28:21.000Z</time>
      </trkpt>
      <trkpt lat="44.98128" lon="5.43328">
        <ele>849</ele>
        <time>2011-06-03T08:28:41.000Z</time>
      </trkpt>
      <trkpt lat="44.98075" lon="5.43324">
        <ele>852</ele>
        <time>2011-06-03T08:29:04.000Z</time>
      </trkpt>
      <trkpt lat="44.98049" lon="5.43301">
        <ele>857</ele>
        <time>2011-06-03T08:29:24.000Z</time>
      </trkpt>
      <trkpt lat="44.98007" lon="5.43297">
        <ele>858</ele>
        <time>2011-06-03T08:29:44.000Z</time>
      </trkpt>
      <trkpt lat="44.97978" lon="5.43287">
        <ele>860</ele>
        <time>2011-06-03T08:30:01.000Z</time>
      </trkpt>
      <trkpt lat="44.97927" lon="5.4327">
        <ele>862</ele>
        <time>2011-06-03T08:30:27.000Z</time>
      </trkpt>
      <trkpt lat="44.97878" lon="5.43256">
        <ele>864</ele>
        <time>2011-06-03T08:30:49.000Z</time>
      </trkpt>
      <trkpt lat="44.97825" lon="5.43239">
        <ele>867</ele>
        <time>2011-06-03T08:31:13.000Z</time>
      </trkpt>
      <trkpt lat="44.97772" lon="5.43227">
        <ele>868</ele>
        <time>2011-06-03T08:31:34.000Z</time>
      </trkpt>
      <trkpt lat="44.97728" lon="5.43201">
        <ele>872</ele>
        <time>2011-06-03T08:31:59.000Z</time>
      </trkpt>
      <trkpt lat="44.97695" lon="5.43179">
        <ele>876</ele>
        <time>2011-06-03T08:32:21.000Z</time>
      </trkpt>
      <trkpt lat="44.97658" lon="5.43171">
        <ele>880</ele>
        <time>2011-06-03T08:32:45.000Z</time>
      </trkpt>
      <trkpt lat="44.97625" lon="5.43159">
        <ele>883</ele>
        <time>2011-06-03T08:33:06.000Z</time>
      </trkpt>
      <trkpt lat="44.9757" lon="5.43141">
        <ele>886</ele>
        <time>2011-06-03T08:33:32.000Z</time>
      </trkpt>
      <trkpt lat="44.97516" lon="5.43112">
        <ele>884</ele>
        <time>2011-06-03T08:33:45.000Z</time>
      </trkpt>
      <trkpt lat="44.97429" lon="5.4305">
        <ele>885</ele>
        <time>2011-06-03T08:34:12.000Z</time>
      </trkpt>
      <trkpt lat="44.97364" lon="5.43023">
        <ele>886</ele>
        <time>2011-06-03T08:34:32.000Z</time>
      </trkpt>
      <trkpt lat="44.97298" lon="5.43008">
        <ele>888</ele>
        <time>2011-06-03T08:34:53.000Z</time>
      </trkpt>
      <trkpt lat="44.97233" lon="5.42979">
        <ele>890</ele>
        <time>2011-06-03T08:35:14.000Z</time>
      </trkpt>
      <trkpt lat="44.9712" lon="5.4292">
        <ele>888</ele>
        <time>2011-06-03T08:35:39.000Z</time>
      </trkpt>
      <trkpt lat="44.96937" lon="5.42901">
        <ele>883</ele>
        <time>2011-06-03T08:36:10.000Z</time>
      </trkpt>
      <trkpt lat="44.9685" lon="5.4286">
        <ele>880</ele>
        <time>2011-06-03T08:36:26.000Z</time>
      </trkpt>
      <trkpt lat="44.9672" lon="5.427">
        <ele>874</ele>
        <time>2011-06-03T08:36:49.000Z</time>
      </trkpt>
      <trkpt lat="44.96651" lon="5.42594">
        <ele>875</ele>
        <time>2011-06-03T08:37:06.000Z</time>
      </trkpt>
      <trkpt lat="44.96568" lon="5.42469">
        <ele>877</ele>
        <time>2011-06-03T08:37:31.000Z</time>
      </trkpt>
      <trkpt lat="44.96542" lon="5.4237">
        <ele>883</ele>
        <time>2011-06-03T08:38:04.000Z</time>
      </trkpt>
      <trkpt lat="44.96532" lon="5.42317">
        <ele>888</ele>
        <time>2011-06-03T08:38:30.000Z</time>
      </trkpt>
      <trkpt lat="44.96521" lon="5.42285">
        <ele>891</ele>
        <time>2011-06-03T08:38:51.000Z</time>
      </trkpt>
      <trkpt lat="44.96523" lon="5.42244">
        <ele>898</ele>
        <time>2011-06-03T08:39:20.000Z</time>
      </trkpt>
      <trkpt lat="44.9651" lon="5.42223">
        <ele>902</ele>
        <time>2011-06-03T08:39:42.000Z</time>
      </trkpt>
      <trkpt lat="44.96535" lon="5.42191">
        <ele>905</ele>
        <time>2011-06-03T08:40:05.000Z</time>
      </trkpt>
      <trkpt lat="44.96566" lon="5.42065">
        <ele>905</ele>
        <time>2011-06-03T08:40:36.000Z</time>
      </trkpt>
      <trkpt lat="44.96637" lon="5.41907">
        <ele>897</ele>
        <time>2011-06-03T08:40:55.000Z</time>
      </trkpt>
      <trkpt lat="44.96696" lon="5.41749">
        <ele>891</ele>
        <time>2011-06-03T08:41:18.000Z</time>
      </trkpt>
      <trkpt lat="44.96724" lon="5.4165">
        <ele>889</ele>
        <time>2011-06-03T08:41:37.000Z</time>
      </trkpt>
      <trkpt lat="44.96766" lon="5.41546">
        <ele>888</ele>
        <time>2011-06-03T08:42:02.000Z</time>
      </trkpt>
    </trkseg>
  </trk>
</gpx>